sensor_id;sensor_type;location;lat;lon;timestamp;P1;durP1;ratioP1;P2;durP2;ratioP2
32172;SDS011;18679;45.190;5.722;2023-06-14T00:01:49;6.32;;;1.83;;
32172;SDS011;18679;45.190;5.722;2023-06-14T00:04:50;1.65;;;1.40;;
32172;SDS011;18679;45.190;5.722;2023-06-14T00:07:52;2.90;;;1.50;;
32172;SDS011;18679;45.190;5.722;2023-06-14T00:10:53;3.35;;;1.48;;
32172;SDS011;18679;45.190;5.722;2023-06-14T00:13:54;2.92;;;1.40;;
32172;SDS011;18679;45.190;5.722;2023-06-14T00:16:55;4.15;;;1.60;;
32172;SDS011;18679;45.190;5.722;2023-06-14T00:19:59;3.50;;;2.08;;
32172;SDS011;18679;45.190;5.722;2023-06-14T00:23:00;5.93;;;1.65;;
32172;SDS011;18679;45.190;5.722;2023-06-14T00:26:01;6.25;;;2.17;;
32172;SDS011;18679;45.190;5.722;2023-06-14T00:29:02;5.90;;;2.00;;
32172;SDS011;18679;45.190;5.722;2023-06-14T00:32:03;2.10;;;1.38;;
32172;SDS011;18679;45.190;5.722;2023-06-14T00:35:04;3.20;;;2.08;;
32172;SDS011;18679;45.190;5.722;2023-06-14T00:38:07;2.38;;;1.60;;
32172;SDS011;18679;45.190;5.722;2023-06-14T00:41:08;4.15;;;1.60;;
32172;SDS011;18679;45.190;5.722;2023-06-14T00:44:09;7.63;;;1.77;;
32172;SDS011;18679;45.190;5.722;2023-06-14T00:47:11;8.20;;;2.00;;
32172;SDS011;18679;45.190;5.722;2023-06-14T00:50:12;6.38;;;1.90;;
32172;SDS011;18679;45.190;5.722;2023-06-14T00:53:13;4.47;;;1.58;;
32172;SDS011;18679;45.190;5.722;2023-06-14T00:56:15;4.82;;;1.45;;
32172;SDS011;18679;45.190;5.722;2023-06-14T00:59:16;4.53;;;1.67;;
32172;SDS011;18679;45.190;5.722;2023-06-14T01:02:17;2.70;;;1.63;;
32172;SDS011;18679;45.190;5.722;2023-06-14T01:05:18;5.20;;;1.55;;
32172;SDS011;18679;45.190;5.722;2023-06-14T01:11:33;4.72;;;1.25;;
32172;SDS011;18679;45.190;5.722;2023-06-14T01:14:46;4.50;;;1.60;;
32172;SDS011;18679;45.190;5.722;2023-06-14T01:17:51;2.22;;;1.60;;
32172;SDS011;18679;45.190;5.722;2023-06-14T01:20:53;2.78;;;1.92;;
32172;SDS011;18679;45.190;5.722;2023-06-14T01:23:58;2.28;;;1.48;;
32172;SDS011;18679;45.190;5.722;2023-06-14T01:27:00;4.93;;;1.92;;
32172;SDS011;18679;45.190;5.722;2023-06-14T01:30:02;7.93;;;1.52;;
32172;SDS011;18679;45.190;5.722;2023-06-14T01:33:05;1.58;;;1.40;;
32172;SDS011;18679;45.190;5.722;2023-06-14T01:36:06;5.32;;;1.70;;
32172;SDS011;18679;45.190;5.722;2023-06-14T01:39:10;7.82;;;1.65;;
32172;SDS011;18679;45.190;5.722;2023-06-14T01:42:13;4.47;;;1.80;;
32172;SDS011;18679;45.190;5.722;2023-06-14T01:45:16;5.78;;;1.70;;
32172;SDS011;18679;45.190;5.722;2023-06-14T01:48:18;1.50;;;1.17;;
32172;SDS011;18679;45.190;5.722;2023-06-14T01:51:19;10.00;;;2.17;;
32172;SDS011;18679;45.190;5.722;2023-06-14T01:54:20;10.13;;;1.85;;
32172;SDS011;18679;45.190;5.722;2023-06-14T01:57:23;3.47;;;1.60;;
32172;SDS011;18679;45.190;5.722;2023-06-14T02:00:26;3.70;;;1.48;;
32172;SDS011;18679;45.190;5.722;2023-06-14T02:03:27;3.58;;;1.35;;
32172;SDS011;18679;45.190;5.722;2023-06-14T02:06:28;4.57;;;1.60;;
32172;SDS011;18679;45.190;5.722;2023-06-14T02:09:29;2.40;;;1.48;;
32172;SDS011;18679;45.190;5.722;2023-06-14T02:12:30;1.73;;;1.20;;
32172;SDS011;18679;45.190;5.722;2023-06-14T02:15:31;3.50;;;1.30;;
32172;SDS011;18679;45.190;5.722;2023-06-14T02:18:35;5.45;;;1.48;;
32172;SDS011;18679;45.190;5.722;2023-06-14T02:21:36;4.00;;;1.30;;
32172;SDS011;18679;45.190;5.722;2023-06-14T02:24:39;2.92;;;1.58;;
32172;SDS011;18679;45.190;5.722;2023-06-14T02:27:41;2.95;;;1.48;;
32172;SDS011;18679;45.190;5.722;2023-06-14T02:30:44;5.65;;;1.80;;
32172;SDS011;18679;45.190;5.722;2023-06-14T02:33:45;1.90;;;1.60;;
32172;SDS011;18679;45.190;5.722;2023-06-14T02:36:47;2.60;;;1.25;;
32172;SDS011;18679;45.190;5.722;2023-06-14T02:39:48;3.10;;;1.38;;
32172;SDS011;18679;45.190;5.722;2023-06-14T02:42:49;2.75;;;1.58;;
32172;SDS011;18679;45.190;5.722;2023-06-14T02:45:50;12.63;;;2.05;;
32172;SDS011;18679;45.190;5.722;2023-06-14T02:48:52;3.60;;;1.60;;
32172;SDS011;18679;45.190;5.722;2023-06-14T02:51:53;4.32;;;1.75;;
32172;SDS011;18679;45.190;5.722;2023-06-14T02:54:54;6.55;;;1.80;;
32172;SDS011;18679;45.190;5.722;2023-06-14T02:57:54;7.43;;;1.77;;
32172;SDS011;18679;45.190;5.722;2023-06-14T03:00:55;1.42;;;1.30;;
32172;SDS011;18679;45.190;5.722;2023-06-14T03:03:57;3.63;;;1.52;;
32172;SDS011;18679;45.190;5.722;2023-06-14T03:06:57;3.65;;;1.48;;
32172;SDS011;18679;45.190;5.722;2023-06-14T03:09:59;5.07;;;1.40;;
32172;SDS011;18679;45.190;5.722;2023-06-14T03:13:00;2.05;;;1.40;;
32172;SDS011;18679;45.190;5.722;2023-06-14T03:16:01;3.03;;;1.38;;
32172;SDS011;18679;45.190;5.722;2023-06-14T03:19:04;3.05;;;1.55;;
32172;SDS011;18679;45.190;5.722;2023-06-14T03:22:07;5.93;;;1.70;;
32172;SDS011;18679;45.190;5.722;2023-06-14T03:25:09;2.20;;;1.30;;
32172;SDS011;18679;45.190;5.722;2023-06-14T03:28:13;3.00;;;1.52;;
32172;SDS011;18679;45.190;5.722;2023-06-14T03:31:14;4.60;;;1.83;;
32172;SDS011;18679;45.190;5.722;2023-06-14T03:34:15;5.32;;;1.70;;
32172;SDS011;18679;45.190;5.722;2023-06-14T03:37:18;2.35;;;1.60;;
32172;SDS011;18679;45.190;5.722;2023-06-14T03:40:20;2.03;;;1.73;;
32172;SDS011;18679;45.190;5.722;2023-06-14T03:43:29;4.80;;;1.40;;
32172;SDS011;18679;45.190;5.722;2023-06-14T03:46:30;3.03;;;1.52;;
32172;SDS011;18679;45.190;5.722;2023-06-14T03:49:31;5.97;;;1.55;;
32172;SDS011;18679;45.190;5.722;2023-06-14T03:52:32;6.50;;;1.90;;
32172;SDS011;18679;45.190;5.722;2023-06-14T03:55:34;4.30;;;2.00;;
32172;SDS011;18679;45.190;5.722;2023-06-14T03:58:36;6.57;;;2.08;;
32172;SDS011;18679;45.190;5.722;2023-06-14T04:01:37;3.42;;;1.88;;
32172;SDS011;18679;45.190;5.722;2023-06-14T04:04:38;2.22;;;1.65;;
32172;SDS011;18679;45.190;5.722;2023-06-14T04:07:39;8.20;;;1.85;;
32172;SDS011;18679;45.190;5.722;2023-06-14T04:10:45;15.65;;;2.50;;
32172;SDS011;18679;45.190;5.722;2023-06-14T04:13:48;6.13;;;2.25;;
32172;SDS011;18679;45.190;5.722;2023-06-14T04:16:49;8.60;;;3.20;;
32172;SDS011;18679;45.190;5.722;2023-06-14T04:19:52;7.88;;;3.80;;
32172;SDS011;18679;45.190;5.722;2023-06-14T04:22:56;8.00;;;3.40;;
32172;SDS011;18679;45.190;5.722;2023-06-14T04:25:57;7.00;;;3.50;;
32172;SDS011;18679;45.190;5.722;2023-06-14T04:29:02;5.32;;;3.28;;
32172;SDS011;18679;45.190;5.722;2023-06-14T04:32:05;2.92;;;2.45;;
32172;SDS011;18679;45.190;5.722;2023-06-14T04:35:12;9.25;;;2.95;;
32172;SDS011;18679;45.190;5.722;2023-06-14T04:38:15;8.00;;;3.17;;
32172;SDS011;18679;45.190;5.722;2023-06-14T04:41:16;3.55;;;1.80;;
32172;SDS011;18679;45.190;5.722;2023-06-14T04:44:19;2.35;;;1.88;;
32172;SDS011;18679;45.190;5.722;2023-06-14T04:47:22;7.82;;;1.92;;
32172;SDS011;18679;45.190;5.722;2023-06-14T04:50:31;4.15;;;1.30;;
32172;SDS011;18679;45.190;5.722;2023-06-14T04:53:33;7.97;;;2.05;;
32172;SDS011;18679;45.190;5.722;2023-06-14T04:56:34;3.00;;;1.92;;
32172;SDS011;18679;45.190;5.722;2023-06-14T04:59:35;2.53;;;1.45;;
32172;SDS011;18679;45.190;5.722;2023-06-14T05:02:36;8.52;;;2.30;;
32172;SDS011;18679;45.190;5.722;2023-06-14T05:05:40;2.00;;;1.63;;
32172;SDS011;18679;45.190;5.722;2023-06-14T05:08:41;4.55;;;2.30;;
32172;SDS011;18679;45.190;5.722;2023-06-14T05:11:42;3.65;;;2.38;;
32172;SDS011;18679;45.190;5.722;2023-06-14T05:14:45;4.57;;;2.78;;
32172;SDS011;18679;45.190;5.722;2023-06-14T05:17:46;3.40;;;2.30;;
32172;SDS011;18679;45.190;5.722;2023-06-14T05:20:53;6.07;;;2.50;;
32172;SDS011;18679;45.190;5.722;2023-06-14T05:23:54;4.32;;;2.28;;
32172;SDS011;18679;45.190;5.722;2023-06-14T05:26:56;5.72;;;2.20;;
32172;SDS011;18679;45.190;5.722;2023-06-14T05:29:57;4.20;;;2.35;;
32172;SDS011;18679;45.190;5.722;2023-06-14T05:32:59;4.10;;;2.40;;
32172;SDS011;18679;45.190;5.722;2023-06-14T05:35:59;2.92;;;1.98;;
32172;SDS011;18679;45.190;5.722;2023-06-14T05:39:00;4.18;;;2.47;;
32172;SDS011;18679;45.190;5.722;2023-06-14T05:42:03;4.68;;;2.78;;
32172;SDS011;18679;45.190;5.722;2023-06-14T05:45:04;4.95;;;2.53;;
32172;SDS011;18679;45.190;5.722;2023-06-14T05:48:06;3.22;;;2.20;;
32172;SDS011;18679;45.190;5.722;2023-06-14T05:51:07;3.20;;;2.13;;
32172;SDS011;18679;45.190;5.722;2023-06-14T05:54:09;5.53;;;2.58;;
32172;SDS011;18679;45.190;5.722;2023-06-14T05:57:10;4.25;;;2.53;;
32172;SDS011;18679;45.190;5.722;2023-06-14T06:00:11;7.28;;;2.50;;
32172;SDS011;18679;45.190;5.722;2023-06-14T06:03:14;5.65;;;2.60;;
32172;SDS011;18679;45.190;5.722;2023-06-14T06:06:15;3.63;;;2.47;;
32172;SDS011;18679;45.190;5.722;2023-06-14T06:09:16;6.22;;;2.67;;
32172;SDS011;18679;45.190;5.722;2023-06-14T06:12:17;5.18;;;2.83;;
32172;SDS011;18679;45.190;5.722;2023-06-14T06:15:18;3.88;;;2.50;;
32172;SDS011;18679;45.190;5.722;2023-06-14T06:18:18;13.20;;;3.00;;
32172;SDS011;18679;45.190;5.722;2023-06-14T06:21:19;5.47;;;2.90;;
32172;SDS011;18679;45.190;5.722;2023-06-14T06:24:20;12.25;;;3.35;;
32172;SDS011;18679;45.190;5.722;2023-06-14T06:27:21;6.45;;;2.85;;
32172;SDS011;18679;45.190;5.722;2023-06-14T06:30:22;6.32;;;3.20;;
32172;SDS011;18679;45.190;5.722;2023-06-14T06:33:23;11.27;;;3.67;;
32172;SDS011;18679;45.190;5.722;2023-06-14T06:36:24;9.98;;;3.53;;
32172;SDS011;18679;45.190;5.722;2023-06-14T06:39:25;7.57;;;4.03;;
32172;SDS011;18679;45.190;5.722;2023-06-14T06:42:26;7.15;;;3.33;;
32172;SDS011;18679;45.190;5.722;2023-06-14T06:45:28;7.78;;;3.33;;
32172;SDS011;18679;45.190;5.722;2023-06-14T06:48:29;19.30;;;4.07;;
32172;SDS011;18679;45.190;5.722;2023-06-14T06:51:30;8.75;;;3.60;;
32172;SDS011;18679;45.190;5.722;2023-06-14T06:54:31;7.18;;;4.10;;
32172;SDS011;18679;45.190;5.722;2023-06-14T06:57:32;9.38;;;4.07;;
32172;SDS011;18679;45.190;5.722;2023-06-14T07:00:33;9.15;;;4.30;;
32172;SDS011;18679;45.190;5.722;2023-06-14T07:03:34;8.60;;;3.78;;
32172;SDS011;18679;45.190;5.722;2023-06-14T07:06:35;7.22;;;3.83;;
32172;SDS011;18679;45.190;5.722;2023-06-14T07:09:37;7.53;;;3.20;;
32172;SDS011;18679;45.190;5.722;2023-06-14T07:12:38;10.05;;;4.18;;
32172;SDS011;18679;45.190;5.722;2023-06-14T07:15:39;3.97;;;3.15;;
32172;SDS011;18679;45.190;5.722;2023-06-14T07:18:40;5.63;;;3.10;;
32172;SDS011;18679;45.190;5.722;2023-06-14T07:21:41;8.57;;;3.55;;
32172;SDS011;18679;45.190;5.722;2023-06-14T07:24:42;7.40;;;3.33;;
32172;SDS011;18679;45.190;5.722;2023-06-14T07:27:44;8.10;;;3.35;;
32172;SDS011;18679;45.190;5.722;2023-06-14T07:30:46;6.57;;;3.42;;
32172;SDS011;18679;45.190;5.722;2023-06-14T07:33:48;5.63;;;3.38;;
32172;SDS011;18679;45.190;5.722;2023-06-14T07:36:49;6.75;;;3.85;;
32172;SDS011;18679;45.190;5.722;2023-06-14T07:39:50;6.38;;;3.15;;
32172;SDS011;18679;45.190;5.722;2023-06-14T07:42:51;6.05;;;3.70;;
32172;SDS011;18679;45.190;5.722;2023-06-14T07:45:54;5.78;;;3.50;;
32172;SDS011;18679;45.190;5.722;2023-06-14T07:48:55;6.53;;;3.20;;
32172;SDS011;18679;45.190;5.722;2023-06-14T07:51:56;6.18;;;3.83;;
32172;SDS011;18679;45.190;5.722;2023-06-14T07:54:57;7.43;;;3.65;;
32172;SDS011;18679;45.190;5.722;2023-06-14T07:57:58;5.13;;;3.13;;
32172;SDS011;18679;45.190;5.722;2023-06-14T08:00:59;6.90;;;3.75;;
32172;SDS011;18679;45.190;5.722;2023-06-14T08:04:01;7.13;;;2.55;;
32172;SDS011;18679;45.190;5.722;2023-06-14T08:07:02;4.90;;;3.05;;
32172;SDS011;18679;45.190;5.722;2023-06-14T08:10:04;5.88;;;2.80;;
32172;SDS011;18679;45.190;5.722;2023-06-14T08:13:05;4.93;;;2.78;;
32172;SDS011;18679;45.190;5.722;2023-06-14T08:16:06;8.52;;;2.67;;
32172;SDS011;18679;45.190;5.722;2023-06-14T08:19:07;3.97;;;2.65;;
32172;SDS011;18679;45.190;5.722;2023-06-14T08:22:08;4.55;;;2.33;;
32172;SDS011;18679;45.190;5.722;2023-06-14T08:25:11;5.00;;;2.90;;
32172;SDS011;18679;45.190;5.722;2023-06-14T08:28:12;2.53;;;1.70;;
32172;SDS011;18679;45.190;5.722;2023-06-14T08:31:13;4.53;;;2.17;;
32172;SDS011;18679;45.190;5.722;2023-06-14T08:34:14;6.78;;;2.40;;
32172;SDS011;18679;45.190;5.722;2023-06-14T08:37:15;3.10;;;2.35;;
32172;SDS011;18679;45.190;5.722;2023-06-14T08:40:20;14.02;;;3.00;;
32172;SDS011;18679;45.190;5.722;2023-06-14T08:43:22;6.90;;;2.55;;
32172;SDS011;18679;45.190;5.722;2023-06-14T08:46:23;4.57;;;2.55;;
32172;SDS011;18679;45.190;5.722;2023-06-14T08:49:27;3.67;;;2.33;;
32172;SDS011;18679;45.190;5.722;2023-06-14T08:52:30;3.80;;;2.10;;
32172;SDS011;18679;45.190;5.722;2023-06-14T08:55:40;8.10;;;2.92;;
32172;SDS011;18679;45.190;5.722;2023-06-14T08:58:44;5.57;;;2.40;;
32172;SDS011;18679;45.190;5.722;2023-06-14T09:01:48;11.00;;;2.40;;
32172;SDS011;18679;45.190;5.722;2023-06-14T09:04:49;6.85;;;2.20;;
32172;SDS011;18679;45.190;5.722;2023-06-14T09:07:50;3.78;;;2.42;;
32172;SDS011;18679;45.190;5.722;2023-06-14T09:10:51;3.72;;;2.20;;
32172;SDS011;18679;45.190;5.722;2023-06-14T09:13:52;2.60;;;1.92;;
32172;SDS011;18679;45.190;5.722;2023-06-14T09:16:53;2.72;;;1.80;;
32172;SDS011;18679;45.190;5.722;2023-06-14T09:19:55;4.82;;;2.50;;
32172;SDS011;18679;45.190;5.722;2023-06-14T09:22:56;5.00;;;2.05;;
32172;SDS011;18679;45.190;5.722;2023-06-14T09:25:57;5.03;;;2.13;;
32172;SDS011;18679;45.190;5.722;2023-06-14T09:28:57;2.88;;;2.00;;
32172;SDS011;18679;45.190;5.722;2023-06-14T09:31:58;2.85;;;1.73;;
32172;SDS011;18679;45.190;5.722;2023-06-14T09:34:59;4.18;;;1.98;;
32172;SDS011;18679;45.190;5.722;2023-06-14T09:38:00;2.65;;;1.60;;
32172;SDS011;18679;45.190;5.722;2023-06-14T09:41:01;4.22;;;1.50;;
32172;SDS011;18679;45.190;5.722;2023-06-14T09:44:05;2.30;;;1.70;;
32172;SDS011;18679;45.190;5.722;2023-06-14T09:47:07;9.65;;;1.65;;
32172;SDS011;18679;45.190;5.722;2023-06-14T09:50:08;2.70;;;1.50;;
32172;SDS011;18679;45.190;5.722;2023-06-14T09:53:10;3.92;;;1.60;;
32172;SDS011;18679;45.190;5.722;2023-06-14T09:56:11;2.55;;;1.63;;
32172;SDS011;18679;45.190;5.722;2023-06-14T09:59:13;3.95;;;1.63;;
32172;SDS011;18679;45.190;5.722;2023-06-14T10:02:26;3.83;;;2.33;;
32172;SDS011;18679;45.190;5.722;2023-06-14T10:05:29;5.15;;;1.70;;
32172;SDS011;18679;45.190;5.722;2023-06-14T10:08:31;3.17;;;1.77;;
32172;SDS011;18679;45.190;5.722;2023-06-14T10:11:37;3.05;;;1.70;;
32172;SDS011;18679;45.190;5.722;2023-06-14T10:14:43;6.65;;;2.08;;
32172;SDS011;18679;45.190;5.722;2023-06-14T10:17:56;2.90;;;1.85;;
32172;SDS011;18679;45.190;5.722;2023-06-14T10:24:37;6.03;;;1.90;;
32172;SDS011;18679;45.190;5.722;2023-06-14T10:27:44;3.75;;;1.98;;
32172;SDS011;18679;45.190;5.722;2023-06-14T10:34:26;3.95;;;2.00;;
32172;SDS011;18679;45.190;5.722;2023-06-14T10:37:28;5.32;;;2.10;;
32172;SDS011;18679;45.190;5.722;2023-06-14T10:40:30;8.38;;;2.10;;
32172;SDS011;18679;45.190;5.722;2023-06-14T10:43:31;3.92;;;2.30;;
32172;SDS011;18679;45.190;5.722;2023-06-14T10:46:32;6.00;;;2.38;;
32172;SDS011;18679;45.190;5.722;2023-06-14T10:49:37;5.75;;;1.92;;
32172;SDS011;18679;45.190;5.722;2023-06-14T10:52:43;2.85;;;2.08;;
32172;SDS011;18679;45.190;5.722;2023-06-14T10:55:44;7.53;;;2.75;;
32172;SDS011;18679;45.190;5.722;2023-06-14T10:58:46;3.60;;;2.10;;
32172;SDS011;18679;45.190;5.722;2023-06-14T11:01:52;3.58;;;2.53;;
32172;SDS011;18679;45.190;5.722;2023-06-14T11:04:57;6.05;;;2.15;;
32172;SDS011;18679;45.190;5.722;2023-06-14T11:11:31;4.60;;;2.30;;
32172;SDS011;18679;45.190;5.722;2023-06-14T11:14:35;3.67;;;2.40;;
32172;SDS011;18679;45.190;5.722;2023-06-14T11:17:36;3.10;;;2.42;;
32172;SDS011;18679;45.190;5.722;2023-06-14T11:20:37;4.25;;;2.30;;
32172;SDS011;18679;45.190;5.722;2023-06-14T11:23:39;5.47;;;3.35;;
32172;SDS011;18679;45.190;5.722;2023-06-14T11:26:40;7.20;;;2.78;;
32172;SDS011;18679;45.190;5.722;2023-06-14T11:29:48;5.97;;;2.80;;
32172;SDS011;18679;45.190;5.722;2023-06-14T11:32:50;5.03;;;2.40;;
32172;SDS011;18679;45.190;5.722;2023-06-14T11:35:55;3.67;;;2.65;;
32172;SDS011;18679;45.190;5.722;2023-06-14T11:39:02;3.65;;;2.65;;
32172;SDS011;18679;45.190;5.722;2023-06-14T11:42:08;3.25;;;2.33;;
32172;SDS011;18679;45.190;5.722;2023-06-14T11:45:15;5.17;;;2.70;;
32172;SDS011;18679;45.190;5.722;2023-06-14T11:48:16;3.38;;;2.80;;
32172;SDS011;18679;45.190;5.722;2023-06-14T11:51:17;3.13;;;2.40;;
32172;SDS011;18679;45.190;5.722;2023-06-14T11:54:19;5.13;;;2.80;;
32172;SDS011;18679;45.190;5.722;2023-06-14T11:57:20;8.25;;;3.13;;
32172;SDS011;18679;45.190;5.722;2023-06-14T12:00:27;10.48;;;3.35;;
32172;SDS011;18679;45.190;5.722;2023-06-14T12:03:29;4.15;;;2.72;;
32172;SDS011;18679;45.190;5.722;2023-06-14T12:06:30;3.78;;;2.70;;
32172;SDS011;18679;45.190;5.722;2023-06-14T12:09:36;5.63;;;2.35;;
32172;SDS011;18679;45.190;5.722;2023-06-14T12:12:37;3.83;;;2.78;;
32172;SDS011;18679;45.190;5.722;2023-06-14T12:15:39;4.63;;;2.60;;
32172;SDS011;18679;45.190;5.722;2023-06-14T12:18:40;2.83;;;2.20;;
32172;SDS011;18679;45.190;5.722;2023-06-14T12:21:46;4.45;;;2.80;;
32172;SDS011;18679;45.190;5.722;2023-06-14T12:24:48;5.85;;;2.88;;
32172;SDS011;18679;45.190;5.722;2023-06-14T12:27:49;12.18;;;2.80;;
32172;SDS011;18679;45.190;5.722;2023-06-14T12:30:50;8.77;;;3.50;;
32172;SDS011;18679;45.190;5.722;2023-06-14T12:33:52;9.50;;;2.90;;
32172;SDS011;18679;45.190;5.722;2023-06-14T12:36:54;3.92;;;2.50;;
32172;SDS011;18679;45.190;5.722;2023-06-14T12:39:55;4.35;;;2.78;;
32172;SDS011;18679;45.190;5.722;2023-06-14T12:42:55;16.42;;;3.35;;
32172;SDS011;18679;45.190;5.722;2023-06-14T12:45:56;7.60;;;2.67;;
32172;SDS011;18679;45.190;5.722;2023-06-14T12:48:57;3.67;;;2.47;;
32172;SDS011;18679;45.190;5.722;2023-06-14T12:51:58;8.30;;;2.95;;
32172;SDS011;18679;45.190;5.722;2023-06-14T12:54:59;4.13;;;2.60;;
32172;SDS011;18679;45.190;5.722;2023-06-14T12:58:00;8.45;;;2.80;;
32172;SDS011;18679;45.190;5.722;2023-06-14T13:01:01;7.20;;;2.88;;
32172;SDS011;18679;45.190;5.722;2023-06-14T13:04:02;7.95;;;2.90;;
32172;SDS011;18679;45.190;5.722;2023-06-14T13:07:03;5.07;;;2.80;;
32172;SDS011;18679;45.190;5.722;2023-06-14T13:10:05;4.57;;;2.67;;
32172;SDS011;18679;45.190;5.722;2023-06-14T13:13:06;4.90;;;3.05;;
32172;SDS011;18679;45.190;5.722;2023-06-14T13:16:07;5.40;;;2.45;;
32172;SDS011;18679;45.190;5.722;2023-06-14T13:19:08;7.80;;;3.15;;
32172;SDS011;18679;45.190;5.722;2023-06-14T13:22:09;4.75;;;2.40;;
32172;SDS011;18679;45.190;5.722;2023-06-14T13:25:10;7.85;;;2.53;;
32172;SDS011;18679;45.190;5.722;2023-06-14T13:28:11;3.25;;;2.35;;
32172;SDS011;18679;45.190;5.722;2023-06-14T13:31:12;4.68;;;2.55;;
32172;SDS011;18679;45.190;5.722;2023-06-14T13:34:13;8.43;;;2.75;;
32172;SDS011;18679;45.190;5.722;2023-06-14T13:37:14;4.65;;;2.60;;
32172;SDS011;18679;45.190;5.722;2023-06-14T13:40:15;3.85;;;2.50;;
32172;SDS011;18679;45.190;5.722;2023-06-14T13:43:16;5.80;;;2.40;;
32172;SDS011;18679;45.190;5.722;2023-06-14T13:46:17;6.28;;;3.05;;
32172;SDS011;18679;45.190;5.722;2023-06-14T13:49:18;9.48;;;3.10;;
32172;SDS011;18679;45.190;5.722;2023-06-14T13:52:19;6.72;;;2.70;;
32172;SDS011;18679;45.190;5.722;2023-06-14T13:55:21;3.90;;;2.88;;
32172;SDS011;18679;45.190;5.722;2023-06-14T13:58:21;6.43;;;2.83;;
32172;SDS011;18679;45.190;5.722;2023-06-14T14:01:24;3.72;;;2.90;;
32172;SDS011;18679;45.190;5.722;2023-06-14T14:04:25;4.18;;;3.13;;
32172;SDS011;18679;45.190;5.722;2023-06-14T14:07:26;6.28;;;3.25;;
32172;SDS011;18679;45.190;5.722;2023-06-14T14:10:29;4.80;;;3.17;;
32172;SDS011;18679;45.190;5.722;2023-06-14T14:13:31;4.45;;;3.05;;
32172;SDS011;18679;45.190;5.722;2023-06-14T14:16:31;9.50;;;3.42;;
32172;SDS011;18679;45.190;5.722;2023-06-14T14:19:35;9.20;;;2.88;;
32172;SDS011;18679;45.190;5.722;2023-06-14T14:22:39;7.67;;;3.10;;
32172;SDS011;18679;45.190;5.722;2023-06-14T14:25:41;7.30;;;3.17;;
32172;SDS011;18679;45.190;5.722;2023-06-14T14:28:42;3.83;;;2.85;;
32172;SDS011;18679;45.190;5.722;2023-06-14T14:31:43;4.82;;;2.97;;
32172;SDS011;18679;45.190;5.722;2023-06-14T14:34:44;5.07;;;2.78;;
32172;SDS011;18679;45.190;5.722;2023-06-14T14:37:45;4.18;;;2.97;;
32172;SDS011;18679;45.190;5.722;2023-06-14T14:40:46;4.25;;;2.80;;
32172;SDS011;18679;45.190;5.722;2023-06-14T14:43:47;7.85;;;2.65;;
32172;SDS011;18679;45.190;5.722;2023-06-14T14:46:47;6.97;;;2.65;;
32172;SDS011;18679;45.190;5.722;2023-06-14T14:49:48;12.27;;;3.28;;
32172;SDS011;18679;45.190;5.722;2023-06-14T14:52:49;6.18;;;3.42;;
32172;SDS011;18679;45.190;5.722;2023-06-14T14:55:50;5.28;;;2.78;;
32172;SDS011;18679;45.190;5.722;2023-06-14T14:58:51;5.93;;;2.78;;
32172;SDS011;18679;45.190;5.722;2023-06-14T15:01:52;4.82;;;2.83;;
32172;SDS011;18679;45.190;5.722;2023-06-14T15:04:53;5.72;;;2.95;;
32172;SDS011;18679;45.190;5.722;2023-06-14T15:07:57;4.95;;;2.70;;
32172;SDS011;18679;45.190;5.722;2023-06-14T15:10:58;4.25;;;2.63;;
32172;SDS011;18679;45.190;5.722;2023-06-14T15:13:59;8.23;;;2.83;;
32172;SDS011;18679;45.190;5.722;2023-06-14T15:17:00;7.32;;;3.33;;
32172;SDS011;18679;45.190;5.722;2023-06-14T15:20:03;7.13;;;2.90;;
32172;SDS011;18679;45.190;5.722;2023-06-14T15:23:06;5.10;;;2.80;;
32172;SDS011;18679;45.190;5.722;2023-06-14T15:26:06;4.10;;;2.95;;
32172;SDS011;18679;45.190;5.722;2023-06-14T15:29:07;5.93;;;2.88;;
32172;SDS011;18679;45.190;5.722;2023-06-14T15:32:08;3.42;;;2.63;;
32172;SDS011;18679;45.190;5.722;2023-06-14T15:35:09;4.57;;;3.00;;
32172;SDS011;18679;45.190;5.722;2023-06-14T15:38:12;3.38;;;2.50;;
32172;SDS011;18679;45.190;5.722;2023-06-14T15:41:13;4.72;;;2.83;;
32172;SDS011;18679;45.190;5.722;2023-06-14T15:44:14;8.35;;;3.00;;
32172;SDS011;18679;45.190;5.722;2023-06-14T15:47:15;3.33;;;2.70;;
32172;SDS011;18679;45.190;5.722;2023-06-14T15:50:16;5.10;;;3.10;;
32172;SDS011;18679;45.190;5.722;2023-06-14T15:53:17;6.15;;;2.40;;
32172;SDS011;18679;45.190;5.722;2023-06-14T15:56:18;13.40;;;2.88;;
32172;SDS011;18679;45.190;5.722;2023-06-14T15:59:18;8.63;;;2.75;;
32172;SDS011;18679;45.190;5.722;2023-06-14T16:02:19;4.93;;;2.83;;
32172;SDS011;18679;45.190;5.722;2023-06-14T16:05:23;4.20;;;2.40;;
32172;SDS011;18679;45.190;5.722;2023-06-14T16:08:24;14.63;;;2.60;;
32172;SDS011;18679;45.190;5.722;2023-06-14T16:11:25;6.75;;;2.60;;
32172;SDS011;18679;45.190;5.722;2023-06-14T16:14:27;4.40;;;2.97;;
32172;SDS011;18679;45.190;5.722;2023-06-14T16:17:27;5.32;;;3.42;;
32172;SDS011;18679;45.190;5.722;2023-06-14T16:20:28;9.25;;;3.00;;
32172;SDS011;18679;45.190;5.722;2023-06-14T16:23:29;4.35;;;2.72;;
32172;SDS011;18679;45.190;5.722;2023-06-14T16:26:30;4.05;;;2.88;;
32172;SDS011;18679;45.190;5.722;2023-06-14T16:29:31;9.07;;;3.22;;
32172;SDS011;18679;45.190;5.722;2023-06-14T16:32:32;9.52;;;3.42;;
32172;SDS011;18679;45.190;5.722;2023-06-14T16:35:33;5.00;;;2.78;;
32172;SDS011;18679;45.190;5.722;2023-06-14T16:38:35;9.52;;;4.10;;
32172;SDS011;18679;45.190;5.722;2023-06-14T16:41:35;4.85;;;3.13;;
32172;SDS011;18679;45.190;5.722;2023-06-14T16:44:36;5.03;;;2.70;;
32172;SDS011;18679;45.190;5.722;2023-06-14T16:47:37;15.07;;;2.95;;
32172;SDS011;18679;45.190;5.722;2023-06-14T16:50:38;5.68;;;3.55;;
32172;SDS011;18679;45.190;5.722;2023-06-14T16:53:39;9.10;;;3.10;;
32172;SDS011;18679;45.190;5.722;2023-06-14T16:56:40;9.48;;;3.40;;
32172;SDS011;18679;45.190;5.722;2023-06-14T16:59:41;3.10;;;2.58;;
32172;SDS011;18679;45.190;5.722;2023-06-14T17:02:41;3.67;;;2.30;;
32172;SDS011;18679;45.190;5.722;2023-06-14T17:05:53;7.25;;;2.85;;
32172;SDS011;18679;45.190;5.722;2023-06-14T17:08:57;6.53;;;2.90;;
32172;SDS011;18679;45.190;5.722;2023-06-14T17:11:58;5.68;;;2.60;;
32172;SDS011;18679;45.190;5.722;2023-06-14T17:14:59;4.78;;;2.92;;
32172;SDS011;18679;45.190;5.722;2023-06-14T17:18:00;5.13;;;2.58;;
32172;SDS011;18679;45.190;5.722;2023-06-14T17:21:01;5.63;;;2.72;;
32172;SDS011;18679;45.190;5.722;2023-06-14T17:24:02;5.93;;;2.70;;
32172;SDS011;18679;45.190;5.722;2023-06-14T17:27:03;4.22;;;2.22;;
32172;SDS011;18679;45.190;5.722;2023-06-14T17:30:05;3.30;;;2.05;;
32172;SDS011;18679;45.190;5.722;2023-06-14T17:33:09;4.38;;;2.15;;
32172;SDS011;18679;45.190;5.722;2023-06-14T17:36:10;5.18;;;2.45;;
32172;SDS011;18679;45.190;5.722;2023-06-14T17:39:12;6.45;;;2.72;;
32172;SDS011;18679;45.190;5.722;2023-06-14T17:42:12;5.53;;;2.63;;
32172;SDS011;18679;45.190;5.722;2023-06-14T17:45:13;6.72;;;2.70;;
32172;SDS011;18679;45.190;5.722;2023-06-14T17:48:15;7.15;;;2.40;;
32172;SDS011;18679;45.190;5.722;2023-06-14T17:51:15;3.58;;;2.20;;
32172;SDS011;18679;45.190;5.722;2023-06-14T17:54:17;8.02;;;3.00;;
32172;SDS011;18679;45.190;5.722;2023-06-14T17:57:18;3.28;;;2.13;;
32172;SDS011;18679;45.190;5.722;2023-06-14T18:00:19;3.25;;;2.13;;
32172;SDS011;18679;45.190;5.722;2023-06-14T18:03:20;6.32;;;2.33;;
32172;SDS011;18679;45.190;5.722;2023-06-14T18:06:21;4.10;;;2.25;;
32172;SDS011;18679;45.190;5.722;2023-06-14T18:09:22;7.13;;;2.60;;
32172;SDS011;18679;45.190;5.722;2023-06-14T18:12:22;6.18;;;2.90;;
32172;SDS011;18679;45.190;5.722;2023-06-14T18:15:23;11.82;;;2.42;;
32172;SDS011;18679;45.190;5.722;2023-06-14T18:18:24;7.93;;;2.53;;
32172;SDS011;18679;45.190;5.722;2023-06-14T18:21:25;3.22;;;2.00;;
32172;SDS011;18679;45.190;5.722;2023-06-14T18:24:26;4.03;;;2.38;;
32172;SDS011;18679;45.190;5.722;2023-06-14T18:27:27;5.20;;;2.42;;
32172;SDS011;18679;45.190;5.722;2023-06-14T18:30:27;3.65;;;2.45;;